Time;durP1;ratioP1;P1;durP2;ratioP2;P2;SDS_P1;SDS_P2;PMS_P1;PMS_P2;Temp;Humidity;BMP_temperature;BMP_pressure;BME280_temperature;BME280_humidity;BME280_pressure;Samples;Min_cycle;Max_cycle;Signal;HPM_P1;HPM_P2
2021/05/20 00:04:55;;;;;;;10.47;4.83;;;;;;;9.37;81.20;98489.48;259096;1103;22797;-73
2021/05/20 00:10:23;;;;;;;9.13;3.68;;;;;;;9.31;81.06;98495.98;259403;1108;23036;-72
2021/05/20 00:15:53;;;;;;;7.47;3.70;;;;;;;9.22;81.20;98498.50;259252;1111;22877;-72
2021/05/20 00:21:14;;;;;;;9.35;3.85;;;;;;;9.13;81.74;98500.20;259161;1110;22861;-72
2021/05/20 00:26:47;;;;;;;9.00;4.07;;;;;;;9.08;81.89;98504.52;259249;1111;22786;-70
2021/05/20 00:39:43;;;;;;;13.48;4.25;;;;;;;9.05;81.66;98505.09;259133;1103;22805;-72
2021/05/20 00:45:47;;;;;;;11.07;4.80;;;;;;;9.06;81.96;98506.67;259035;1109;22779;-73
2021/05/20 00:51:42;;;;;;;;;;;;;;;;;;;;;
2021/05/20 00:57:54;;;;;;;8.93;4.47;;;;;;;9.04;82.16;98514.19;259358;1103;25903;-72
2021/05/20 01:03:38;;;;;;;12.03;4.43;;;;;;;9.07;82.38;98505.59;259276;1110;22783;-73
2021/05/20 01:09:42;;;;;;;;;;;;;;;;;;;;;
2021/05/20 01:16:03;;;;;;;8.65;4.33;;;;;;;9.10;82.04;98500.78;259058;1106;25741;-72
2021/05/20 01:22:51;;;;;;;;;;;;;;;;;;;;;
2021/05/20 01:29:06;;;;;;;;;;;;;;;;;;;;;
2021/05/20 01:34:22;;;;;;;13.10;5.90;;;;;;;9.10;82.09;98516.81;259367;1103;25865;-73
2021/05/20 01:40:01;;;;;;;11.37;5.37;;;;;;;9.07;82.01;98521.63;259068;1110;22811;-72
2021/05/20 01:46:11;;;;;;;;;;;;;;;;;;;;;
2021/05/20 01:52:46;;;;;;;;;;;;;;;;;;;;;
2021/05/20 01:59:27;;;;;;;10.97;3.93;;;;;;;8.97;82.39;98527.09;259434;1108;22855;-72
2021/05/20 02:05:30;;;;;;;11.55;4.10;;;;;;;8.96;82.71;98528.16;259147;1110;22961;-73
2021/05/20 02:12:06;;;;;;;;;;;;;;;;;;;;;
2021/05/20 02:18:31;;;;;;;;;;;;;;;;;;;;;
2021/05/20 02:24:03;;;;;;;;;;;;;;;;;;;;;
2021/05/20 02:30:17;;;;;;;9.60;4.40;;;;;;;9.02;82.61;98544.94;259111;1103;23298;-72
2021/05/20 02:36:41;;;;;;;;;;;;;;;;;;;;;
2021/05/20 02:42:30;;;;;;;;;;;;;;;;;;;;;
2021/05/20 02:48:57;;;;;;;11.53;4.13;;;;;;;8.96;82.47;98536.18;259157;1103;22800;-72
2021/05/20 02:54:40;;;;;;;11.05;4.05;;;;;;;8.92;82.72;98540.49;259472;1108;23616;-72
2021/05/20 03:00:17;;;;;;;;;;;;;;;;;;;;;
2021/05/20 03:06:36;;;;;;;11.97;5.20;;;;;;;8.87;83.10;98545.88;259161;1110;22965;-72
2021/05/20 03:12:25;;;;;;;;;;;;;;;;;;;;;
2021/05/20 03:17:55;;;;;;;11.53;5.63;;;;;;;8.89;82.57;98557.09;259248;1110;22836;-72
2021/05/20 03:23:45;;;;;;;;;;;;;;;;;;;;;
2021/05/20 03:29:18;;;;;;;12.47;4.47;;;;;;;8.93;82.80;98560.80;259088;1110;22783;-73
2021/05/20 03:35:12;;;;;;;16.75;5.60;;;;;;;8.97;82.55;98563.67;259240;1108;22767;-72
2021/05/20 03:42:04;;;;;;;11.40;5.00;;;;;;;9.02;83.15;98572.47;259147;1103;23711;-72
2021/05/20 03:48:58;;;;;;;14.33;6.07;;;;;;;9.08;82.68;98579.34;259159;1103;24454;-72
2021/05/20 04:03:17;;;;;;;9.93;5.03;;;;;;;9.24;82.71;98584.52;259038;1103;26292;-72
2021/05/20 04:10:10;;;;;;;;;;;;;;;;;;;;;
2021/05/20 04:16:33;;;;;;;;;;;;;;;;;;;;;
2021/05/20 04:23:03;;;;;;;17.47;6.30;;;;;;;9.70;82.99;98601.92;259071;1103;22917;-71
2021/05/20 04:29:37;;;;;;;12.20;5.43;;;;;;;9.87;82.33;98612.92;259304;1110;22955;-71
2021/05/20 04:36:36;;;;;;;12.45;5.55;;;;;;;10.05;82.37;98613.25;259168;1103;22882;-72
2021/05/20 04:43:31;;;;;;;12.17;4.50;;;;;;;10.12;82.03;98631.63;259144;1103;22845;-71
2021/05/20 04:50:35;;;;;;;14.13;4.60;;;;;;;10.21;82.03;98637.91;259044;1111;23750;-71
2021/05/20 04:57:46;;;;;;;10.45;4.50;;;;;;;10.30;81.71;98636.19;258939;1103;26230;-72
2021/05/20 05:04:29;;;;;;;;;;;;;;;;;;;;;
2021/05/20 05:11:28;;;;;;;10.03;3.83;;;;;;;10.60;81.13;98636.84;259087;1103;22796;-72
2021/05/20 05:18:05;;;;;;;7.00;3.60;;;;;;;10.68;81.09;98641.54;258921;1110;22864;-72
2021/05/20 05:24:41;;;;;;;10.23;4.03;;;;;;;10.71;80.70;98648.98;258921;1103;22782;-71
2021/05/20 05:37:16;;;;;;;10.15;4.10;;;;;;;10.85;80.61;98654.40;259266;1103;24660;-73
2021/05/20 05:44:02;;;;;;;;;;;;;;;;;;;;;
2021/05/20 05:50:45;;;;;;;;;;;;;;;;;;;;;
2021/05/20 06:04:45;;;;;;;;;;;;;;;;;;;;;
2021/05/20 06:11:33;;;;;;;7.00;4.80;;;;;;;11.39;79.03;98662.09;260128;1108;23550;-70
2021/05/20 06:18:09;;;;;;;8.65;3.00;;;;;;;11.63;79.15;98664.59;265719;1104;23738;-69
2021/05/20 06:24:50;;;;;;;;;;;;;;;;;;;;;
2021/05/20 06:31:40;;;;;;;6.55;3.10;;;;;;;12.28;77.70;98668.13;260277;1107;22823;-70
2021/05/20 06:37:54;;;;;;;7.80;2.80;;;;;;;12.73;78.00;98672.77;259360;1111;23012;-71
2021/05/20 06:44:32;;;;;;;;;;;;;;;;;;;;;
2021/05/20 06:59:56;;;;;;;4.03;1.80;;;;;;;13.01;75.27;98686.88;259501;1111;23628;-71
2021/05/20 07:04:29;;;;;;;5.20;2.40;;;;;;;13.24;74.58;98697.64;259525;1103;25837;-72
2021/05/20 07:10:35;;;;;;;6.87;2.17;;;;;;;13.43;74.13;98700.94;260324;1104;22818;-71
2021/05/20 07:16:36;;;;;;;3.60;1.90;;;;;;;13.49;73.34;98691.62;259915;1110;22858;-71
2021/05/20 07:23:22;;;;;;;;;;;;;;;;;;;;;
2021/05/20 07:29:50;;;;;;;3.95;1.30;;;;;;;13.82;71.88;98710.14;259541;1108;23426;-71
2021/05/20 07:36:36;;;;;;;;;;;;;;;;;;;;;
2021/05/20 07:43:12;;;;;;;3.77;1.73;;;;;;;14.01;70.13;98717.16;259420;1103;22885;-71
2021/05/20 07:49:17;;;;;;;2.60;1.67;;;;;;;13.93;69.60;98699.86;259695;1111;22822;-71
2021/05/20 07:56:22;;;;;;;;;;;;;;;;;;;;;
2021/05/20 08:16:44;;;;;;;;;;;;;;;;;;;;;
2021/05/20 08:23:39;;;;;;;1.90;1.00;;;;;;;15.17;64.79;98701.57;259238;1103;22792;-70
2021/05/20 08:30:27;;;;;;;;;;;;;;;;;;;;;
2021/05/20 08:36:37;;;;;;;1.05;0.70;;;;;;;15.28;61.81;98710.09;260083;1109;22735;-71
2021/05/20 08:49:51;;;;;;;2.85;0.50;;;;;;;15.64;58.70;98709.70;259624;1110;22800;-70
2021/05/20 08:56:35;;;;;;;;;;;;;;;;;;;;;
2021/05/20 09:10:53;;;;;;;0.40;0.40;;;;;;;16.01;56.11;98710.03;259974;1108;22847;-71
2021/05/20 09:25:04;;;;;;;0.85;0.65;;;;;;;16.38;52.29;98718.42;259523;1103;26916;-70
2021/05/20 09:59:57;;;;;;;0.25;0.25;;;;;;;16.43;48.97;98703.91;256814;1105;22921;-70
2021/05/20 10:13:26;;;;;;;;;;;;;;;;;;;;;
2021/05/20 10:19:28;;;;;;;0.37;0.37;;;;;;;16.91;47.78;98726.96;264034;1105;25893;-70
2021/05/20 10:25:33;;;;;;;0.80;0.50;;;;;;;17.12;47.86;98715.30;257723;1106;22778;-69
2021/05/20 10:31:35;;;;;;;0.50;0.50;;;;;;;17.04;47.01;98713.46;259608;1103;25177;-70
2021/05/20 10:38:11;;;;;;;0.65;0.40;;;;;;;17.17;45.22;98723.22;259442;1110;24583;-70
2021/05/20 10:45:07;;;;;;;0.40;0.40;;;;;;;17.43;46.28;98704.00;259421;1103;22837;-70
2021/05/20 10:51:32;;;;;;;0.50;0.20;;;;;;;17.53;44.84;98708.20;260221;1105;22818;-70
2021/05/20 10:58:13;;;;;;;;;;;;;;;;;;;;;
2021/05/20 11:04:11;;;;;;;0.90;0.35;;;;;;;17.68;45.74;98705.95;259284;1103;25864;-71
2021/05/20 11:10:24;;;;;;;;;;;;;;;;;;;;;
2021/05/20 11:16:47;;;;;;;0.90;0.20;;;;;;;17.87;43.70;98699.98;259112;1105;25913;-69
2021/05/20 11:23:39;;;;;;;;;;;;;;;;;;;;;
2021/05/20 11:30:38;;;;;;;0.40;0.40;;;;;;;18.07;42.30;98699.09;258093;1103;22841;-69
2021/05/20 11:37:19;;;;;;;;;;;;;;;;;;;;;
2021/05/20 11:44:18;;;;;;;0.50;0.35;;;;;;;17.70;43.79;98687.45;257945;1110;22774;-69
2021/05/20 11:51:00;;;;;;;0.40;0.40;;;;;;;17.77;42.98;98672.20;257588;1103;22782;-69
2021/05/20 11:57:20;;;;;;;0.30;0.30;;;;;;;17.97;43.40;98679.81;259433;1103;22782;-69
2021/05/20 12:03:37;;;;;;;0.20;0.20;;;;;;;17.58;43.29;98672.75;258241;1110;22948;-69
2021/05/20 12:10:40;;;;;;;;;;;;;;;;;;;;;
2021/05/20 12:17:10;;;;;;;;;;;;;;;;;;;;;
2021/05/20 12:23:48;;;;;;;0.65;0.40;;;;;;;17.96;43.83;98670.87;257845;1110;22922;-69
2021/05/20 12:29:53;;;;;;;0.30;0.30;;;;;;;18.11;42.80;98674.81;259524;1110;24305;-70
2021/05/20 12:49:35;;;;;;;0.30;0.30;;;;;;;18.34;43.10;98658.05;258344;1103;22783;-70
2021/05/20 13:00:56;;;;;;;0.38;0.38;;;;;;;18.46;42.22;98661.52;258142;1103;22845;-69
2021/05/20 13:06:08;;;;;;;0.45;0.30;;;;;;;18.03;40.50;98657.53;259494;1103;27600;-70
2021/05/20 13:11:18;;;;;;;0.75;0.60;;;;;;;17.73;39.94;98670.52;259185;1103;24445;-69
2021/05/20 13:17:08;;;;;;;0.43;0.40;;;;;;;17.69;42.63;98672.33;258237;1108;22803;-69
2021/05/20 13:22:35;;;;;;;0.70;0.40;;;;;;;17.83;42.36;98661.16;258338;1103;25761;-69
2021/05/20 13:27:52;;;;;;;0.40;0.30;;;;;;;17.99;42.90;98663.98;257910;1103;24186;-70
2021/05/20 13:33:03;;;;;;;1.13;0.40;;;;;;;18.19;42.96;98663.06;258079;1103;24448;-68
2021/05/20 13:38:10;;;;;;;0.77;0.47;;;;;;;18.23;41.29;98666.67;259432;1110;22803;-69
2021/05/20 13:43:20;;;;;;;0.73;0.30;;;;;;;18.29;41.75;98657.16;257987;1103;22822;-70
2021/05/20 13:48:49;;;;;;;0.30;0.30;;;;;;;18.50;42.12;98667.05;259446;1103;24301;-69
2021/05/20 13:53:56;;;;;;;0.40;0.40;;;;;;;18.74;41.93;98658.03;258081;1108;24413;-68
2021/05/20 13:59:06;;;;;;;0.50;0.30;;;;;;;18.98;40.85;98645.52;257911;1103;22773;-68
2021/05/20 14:04:13;;;;;;;0.40;0.40;;;;;;;18.83;41.18;98668.76;260248;1103;22786;-68
2021/05/20 14:09:21;;;;;;;1.00;0.90;;;;;;;18.42;41.75;98668.75;258008;1108;22868;-70
2021/05/20 14:15:00;;;;;;;2.03;1.00;;;;;;;17.89;42.11;98663.30;258022;1103;25894;-70
2021/05/20 14:35:06;;;;;;;2.95;1.20;;;;;;;17.76;44.65;98665.20;258341;1105;22760;-69
2021/05/20 14:49:13;;;;;;;2.00;1.30;;;;;;;17.55;43.97;98665.30;258100;1111;22790;-69
2021/05/20 15:16:29;;;;;;;1.90;1.67;;;;;;;17.60;45.27;98677.86;258613;1103;26066;-69
2021/05/20 15:36:59;;;;;;;1.30;1.20;;;;;;;18.04;45.34;98671.89;258160;1105;22747;-69
2021/05/20 15:43:34;;;;;;;1.45;1.35;;;;;;;18.02;45.84;98672.23;258481;1105;25832;-69
2021/05/20 16:02:23;;;;;;;;;;;;;;;;;;;;;
2021/05/20 16:15:52;;;;;;;1.60;1.50;;;;;;;16.56;45.33;98702.87;258345;1103;26053;-69
2021/05/20 16:22:37;;;;;;;;;;;;;;;;;;;;;
2021/05/20 16:35:57;;;;;;;;;;;;;;;;;;;;;
2021/05/20 16:43:05;;;;;;;1.53;1.43;;;;;;;16.50;46.88;98711.50;258300;1106;22779;-68
2021/05/20 17:04:04;;;;;;;1.77;1.47;;;;;;;15.94;47.26;98719.78;258404;1110;22952;-69
2021/05/20 17:10:43;;;;;;;1.30;1.20;;;;;;;15.94;48.30;98727.88;258380;1103;25784;-69
2021/05/20 17:53:01;;;;;;;1.53;1.43;;;;;;;15.59;45.85;98749.59;257858;1103;26382;-68
2021/05/20 18:06:18;;;;;;;2.87;1.80;;;;;;;14.36;48.47;98754.97;258927;1111;22877;-68
2021/05/20 18:24:54;;;;;;;4.83;3.25;;;;;;;13.39;51.19;98761.85;258289;1111;22957;-69
2021/05/20 18:30:22;;;;;;;;;;;;;;;13.12;52.10;98757.34;258354;1111;24662;-69
2021/05/20 18:36:18;;;;;;;;;;;;;;;;;;;;;
2021/05/20 18:56:24;;;;;;;4.90;4.17;;;;;;;12.26;55.50;98775.08;258489;1110;24403;-69
2021/05/20 19:08:59;;;;;;;;;;;;;;;;;;;;;
2021/05/20 19:28:42;;;;;;;6.90;5.05;;;;;;;11.44;60.48;98798.77;258084;1110;22779;-69
2021/05/20 19:34:11;;;;;;;7.60;5.65;;;;;;;11.27;61.33;98815.40;258416;1110;22806;-69
2021/05/20 19:39:26;;;;;;;7.50;5.17;;;;;;;11.10;61.84;98827.44;258316;1103;26086;-68
2021/05/20 19:44:54;;;;;;;6.20;5.00;;;;;;;11.05;62.31;98818.67;258329;1106;26141;-69
2021/05/20 19:50:18;;;;;;;5.17;4.67;;;;;;;11.00;62.78;98805.36;258408;1105;22938;-69
2021/05/20 19:59:24;;;;;;;6.63;5.20;;;;;;;10.93;63.06;98813.75;258277;1106;23005;-69
2021/05/20 20:01:38;;;;;;;9.00;6.55;;;;;;;10.83;63.60;98821.91;259336;1111;22832;-70
2021/05/20 20:07:05;;;;;;;11.70;7.10;;;;;;;10.69;63.95;98822.64;258451;1110;22813;-69
2021/05/20 20:13:18;;;;;;;17.83;9.50;;;;;;;10.56;65.10;98823.33;258387;1103;22783;-69
2021/05/20 21:08:21;;;;;;;;;;;;;;;;;;;;;
2021/05/20 21:28:27;;;;;;;;;;;;;;;;;;;;;
2021/05/20 21:35:24;;;;;;;11.63;7.43;;;;;;;9.36;71.04;98795.31;258349;1103;26015;-69
2021/05/20 21:42:01;;;;;;;;;;;;;;;;;;;;;
2021/05/20 21:48:33;;;;;;;;;;;;;;;;;;;;;
2021/05/20 21:55:35;;;;;;;;;;;;;;;;;;;;;
2021/05/20 22:02:45;;;;;;;12.98;7.73;;;;;;;9.54;72.94;98781.28;257888;1111;22797;-69
2021/05/20 22:09:02;;;;;;;;;;;;;;;;;;;;;
2021/05/20 22:15:35;;;;;;;;;;;;;;;;;;;;;
2021/05/20 22:21:02;;;;;;;10.77;7.63;;;;;;;9.53;72.87;98781.56;258492;1105;25906;-69
2021/05/20 22:34:52;;;;;;;;;;;;;;;;;;;;;
2021/05/20 22:41:38;;;;;;;17.10;10.43;;;;;;;8.77;74.44;98781.02;257908;1103;22867;-69
2021/05/20 22:47:51;;;;;;;13.50;9.05;;;;;;;8.60;75.13;98781.38;258334;1103;25894;-69
2021/05/20 22:53:46;;;;;;;12.00;8.27;;;;;;;8.48;75.77;98785.17;258365;1103;22873;-69
2021/05/20 22:59:45;;;;;;;10.80;8.55;;;;;;;8.44;75.95;98773.42;258358;1103;26022;-69
2021/05/20 23:05:30;;;;;;;11.80;9.80;;;;;;;8.45;75.95;98777.72;258350;1110;22807;-69
2021/05/20 23:11:31;;;;;;;;;;;;;;;;;;;;;
2021/05/20 23:17:15;;;;;;;13.50;9.20;;;;;;;8.53;76.83;98773.66;258716;1108;22867;-69
2021/05/20 23:22:55;;;;;;;12.40;8.30;;;;;;;8.58;76.75;98770.98;258532;1110;22837;-70
2021/05/20 23:36:01;;;;;;;;;;;;;;;;;;;;;
2021/05/20 23:42:29;;;;;;;11.30;9.40;;;;;;;8.25;77.31;98769.76;258527;1103;22779;-69
2021/05/20 23:48:45;;;;;;;13.33;9.47;;;;;;;8.13;77.53;98772.72;258664;1103;22830;-69
2021/05/20 23:54:52;;;;;;;;;;;;;;;;;;;;;
